Terminal Aerodrome Forecast
Issued by NWS

Home | Current Version | Previous Version | Text Only | Print | Product List | Glossary On
Versions: 1 2 3 4 5 6 7 8 9 10 11 12 13 14 15 16 17 18 19 20
148
FTUS42 KGSP 041128
TAFAND
TAF
KAND 041128Z 0412/0512 26003KT P6SM FEW070
     FM041500 28008KT P6SM FEW250
     FM041800 27012G22KT P6SM FEW060
     FM050100 25008KT P6SM SCT015
     FM050500 26006KT P6SM SCT200=

USA.gov is the U.S. government's official web portal to all federal, state and local government web resources and services.